sensor_id;sensor_type;location;lat;lon;timestamp;pressure;altitude;pressure_sealevel;temperature
78859;BMP280;68210;52.032;4.634;2023-06-14T00:01:49;101413.56;;;21.26
78859;BMP280;68210;52.032;4.634;2023-06-14T00:03:49;101410.50;;;21.17
78859;BMP280;68210;52.032;4.634;2023-06-14T00:05:50;101410.50;;;21.17
78859;BMP280;68210;52.032;4.634;2023-06-14T00:07:50;101414.50;;;21.09
78859;BMP280;68210;52.032;4.634;2023-06-14T00:09:53;101410.16;;;21.08
78859;BMP280;68210;52.032;4.634;2023-06-14T00:11:53;101407.44;;;21.01
78859;BMP280;68210;52.032;4.634;2023-06-14T00:13:54;101407.81;;;21.03
78859;BMP280;68210;52.032;4.634;2023-06-14T00:15:54;101405.88;;;21.00
78859;BMP280;68210;52.032;4.634;2023-06-14T00:17:55;101396.81;;;21.00
78859;BMP280;68210;52.032;4.634;2023-06-14T00:19:57;101409.72;;;21.13
78859;BMP280;68210;52.032;4.634;2023-06-14T00:21:58;101413.25;;;21.17
78859;BMP280;68210;52.032;4.634;2023-06-14T00:23:58;101414.50;;;21.09
78859;BMP280;68210;52.032;4.634;2023-06-14T00:25:59;101409.31;;;21.11
78859;BMP280;68210;52.032;4.634;2023-06-14T00:28:00;101410.84;;;21.19
78859;BMP280;68210;52.032;4.634;2023-06-14T00:30:01;101415.19;;;21.16
78859;BMP280;68210;52.032;4.634;2023-06-14T00:32:01;101416.00;;;21.13
78859;BMP280;68210;52.032;4.634;2023-06-14T00:34:02;101413.69;;;21.08
78859;BMP280;68210;52.032;4.634;2023-06-14T00:36:02;101414.91;;;21.04
78859;BMP280;68210;52.032;4.634;2023-06-14T00:38:03;101412.59;;;20.99
78859;BMP280;68210;52.032;4.634;2023-06-14T00:40:04;101416.97;;;20.90
78859;BMP280;68210;52.032;4.634;2023-06-14T00:42:05;101415.44;;;20.85
78859;BMP280;68210;52.032;4.634;2023-06-14T00:44:06;101411.13;;;20.81
78859;BMP280;68210;52.032;4.634;2023-06-14T00:46:06;101417.06;;;20.79
78859;BMP280;68210;52.032;4.634;2023-06-14T00:48:07;101414.78;;;20.64
78859;BMP280;68210;52.032;4.634;2023-06-14T00:50:08;101418.72;;;20.60
78859;BMP280;68210;52.032;4.634;2023-06-14T00:52:10;101426.22;;;20.49
78859;BMP280;68210;52.032;4.634;2023-06-14T00:54:12;101414.03;;;20.57
78859;BMP280;68210;52.032;4.634;2023-06-14T00:56:13;101417.22;;;20.45
78859;BMP280;68210;52.032;4.634;2023-06-14T00:58:15;101421.53;;;20.39
78859;BMP280;68210;52.032;4.634;2023-06-14T01:00:15;101406.22;;;20.38
78859;BMP280;68210;52.032;4.634;2023-06-14T01:02:16;101414.41;;;20.59
78859;BMP280;68210;52.032;4.634;2023-06-14T01:04:17;101418.75;;;20.56
78859;BMP280;68210;52.032;4.634;2023-06-14T01:06:35;101412.53;;;20.35
78859;BMP280;68210;52.032;4.634;2023-06-14T01:08:51;101414.78;;;20.54
78859;BMP280;68210;52.032;4.634;2023-06-14T01:11:22;101418.78;;;20.46
78859;BMP280;68210;52.032;4.634;2023-06-14T01:13:35;101410.97;;;20.34
78859;BMP280;68210;52.032;4.634;2023-06-14T01:15:37;101415.28;;;20.35
78859;BMP280;68210;52.032;4.634;2023-06-14T01:17:39;101406.22;;;20.38
78859;BMP280;68210;52.032;4.634;2023-06-14T01:19:45;101411.69;;;20.41
78859;BMP280;68210;52.032;4.634;2023-06-14T01:21:45;101405.47;;;20.34
78859;BMP280;68210;52.032;4.634;2023-06-14T01:23:46;101405.38;;;20.48
78859;BMP280;68210;52.032;4.634;2023-06-14T01:25:52;101403.09;;;20.33
78859;BMP280;68210;52.032;4.634;2023-06-14T01:27:57;101407.00;;;20.35
78859;BMP280;68210;52.032;4.634;2023-06-14T01:29:58;101401.84;;;20.47
78859;BMP280;68210;52.032;4.634;2023-06-14T01:32:01;101399.06;;;20.51
78859;BMP280;68210;52.032;4.634;2023-06-14T01:34:01;101405.34;;;20.55
78859;BMP280;68210;52.032;4.634;2023-06-14T01:36:02;101406.16;;;20.59
78859;BMP280;68210;52.032;4.634;2023-06-14T01:38:05;101406.13;;;20.52
78859;BMP280;68210;52.032;4.634;2023-06-14T01:40:07;101399.03;;;20.61
78859;BMP280;68210;52.032;4.634;2023-06-14T01:42:08;101410.84;;;20.55
78859;BMP280;68210;52.032;4.634;2023-06-14T01:44:09;101408.53;;;20.50
78859;BMP280;68210;52.032;4.634;2023-06-14T01:46:10;101402.28;;;20.36
78859;BMP280;68210;52.032;4.634;2023-06-14T01:48:11;101401.03;;;20.47
78859;BMP280;68210;52.032;4.634;2023-06-14T01:50:12;101406.94;;;20.49
78859;BMP280;68210;52.032;4.634;2023-06-14T01:52:13;101397.97;;;20.35
78859;BMP280;68210;52.032;4.634;2023-06-14T01:54:13;101400.00;;;20.17
78859;BMP280;68210;52.032;4.634;2023-06-14T01:56:14;101405.13;;;20.11
78859;BMP280;68210;52.032;4.634;2023-06-14T01:58:15;101398.03;;;20.21
78859;BMP280;68210;52.032;4.634;2023-06-14T02:00:16;101396.00;;;20.35
78859;BMP280;68210;52.032;4.634;2023-06-14T02:02:18;101390.50;;;20.32
78859;BMP280;68210;52.032;4.634;2023-06-14T02:04:18;101391.34;;;20.22
78859;BMP280;68210;52.032;4.634;2023-06-14T02:06:19;101396.81;;;20.25
78859;BMP280;68210;52.032;4.634;2023-06-14T02:08:19;101394.13;;;20.18
78859;BMP280;68210;52.032;4.634;2023-06-14T02:10:20;101394.53;;;20.10
78859;BMP280;68210;52.032;4.634;2023-06-14T02:12:20;101400.81;;;20.14
78859;BMP280;68210;52.032;4.634;2023-06-14T02:14:20;101390.56;;;20.14
78859;BMP280;68210;52.032;4.634;2023-06-14T02:16:21;101397.66;;;20.15
78859;BMP280;68210;52.032;4.634;2023-06-14T02:18:23;101395.34;;;20.04
78859;BMP280;68210;52.032;4.634;2023-06-14T02:20:23;101392.50;;;20.24
78859;BMP280;68210;52.032;4.634;2023-06-14T02:22:23;101400.38;;;20.22
78859;BMP280;68210;52.032;4.634;2023-06-14T02:24:24;101399.13;;;20.34
78859;BMP280;68210;52.032;4.634;2023-06-14T02:26:24;101403.50;;;20.28
78859;BMP280;68210;52.032;4.634;2023-06-14T02:28:25;101405.44;;;20.31
78859;BMP280;68210;52.032;4.634;2023-06-14T02:30:25;101406.19;;;20.45
78859;BMP280;68210;52.032;4.634;2023-06-14T02:32:26;101404.56;;;20.54
78859;BMP280;68210;52.032;4.634;2023-06-14T02:34:29;101403.44;;;20.41
78859;BMP280;68210;52.032;4.634;2023-06-14T02:36:29;101401.44;;;20.49
78859;BMP280;68210;52.032;4.634;2023-06-14T02:38:30;101410.06;;;20.58
78859;BMP280;68210;52.032;4.634;2023-06-14T02:40:30;101409.69;;;20.49
78859;BMP280;68210;52.032;4.634;2023-06-14T02:42:31;101407.69;;;20.60
78859;BMP280;68210;52.032;4.634;2023-06-14T02:44:31;101406.56;;;20.47
78859;BMP280;68210;52.032;4.634;2023-06-14T02:46:32;101409.72;;;20.56
78859;BMP280;68210;52.032;4.634;2023-06-14T02:48:33;101405.38;;;20.48
78859;BMP280;68210;52.032;4.634;2023-06-14T02:50:33;101410.06;;;20.61
78859;BMP280;68210;52.032;4.634;2023-06-14T02:52:33;101410.47;;;20.53
78859;BMP280;68210;52.032;4.634;2023-06-14T02:54:34;101414.03;;;20.57
78859;BMP280;68210;52.032;4.634;2023-06-14T02:56:34;101421.84;;;20.69
78859;BMP280;68210;52.032;4.634;2023-06-14T02:58:36;101423.50;;;20.45
78859;BMP280;68210;52.032;4.634;2023-06-14T03:00:37;101423.34;;;20.76
78859;BMP280;68210;52.032;4.634;2023-06-14T03:02:38;101428.03;;;20.86
78859;BMP280;68210;52.032;4.634;2023-06-14T03:04:38;101417.88;;;20.73
78859;BMP280;68210;52.032;4.634;2023-06-14T03:06:39;101425.31;;;20.79
78859;BMP280;68210;52.032;4.634;2023-06-14T03:08:40;101428.03;;;20.86
78859;BMP280;68210;52.032;4.634;2023-06-14T03:10:41;101428.00;;;20.93
78859;BMP280;68210;52.032;4.634;2023-06-14T03:12:43;101421.78;;;20.75
78859;BMP280;68210;52.032;4.634;2023-06-14T03:14:43;101421.13;;;20.51
78859;BMP280;68210;52.032;4.634;2023-06-14T03:16:45;101427.44;;;20.44
78859;BMP280;68210;52.032;4.634;2023-06-14T03:18:50;101432.50;;;20.49
78859;BMP280;68210;52.032;4.634;2023-06-14T03:20:51;101436.44;;;20.62
78859;BMP280;68210;52.032;4.634;2023-06-14T03:22:52;101436.78;;;20.68
78859;BMP280;68210;52.032;4.634;2023-06-14T03:24:54;101433.31;;;20.50
78859;BMP280;68210;52.032;4.634;2023-06-14T03:26:55;101439.22;;;20.59
78859;BMP280;68210;52.032;4.634;2023-06-14T03:28:56;101430.59;;;20.43
78859;BMP280;68210;52.032;4.634;2023-06-14T03:30:57;101436.13;;;20.40
78859;BMP280;68210;52.032;4.634;2023-06-14T03:32:58;101443.88;;;20.65
78859;BMP280;68210;52.032;4.634;2023-06-14T03:35:01;101439.19;;;20.52
78859;BMP280;68210;52.032;4.634;2023-06-14T03:37:01;101451.28;;;20.78
78859;BMP280;68210;52.032;4.634;2023-06-14T03:39:01;101451.44;;;20.47
78859;BMP280;68210;52.032;4.634;2023-06-14T03:41:02;101460.09;;;20.39
78859;BMP280;68210;52.032;4.634;2023-06-14T03:43:02;101456.59;;;20.35
78859;BMP280;68210;52.032;4.634;2023-06-14T03:45:03;101454.22;;;20.37
78859;BMP280;68210;52.032;4.634;2023-06-14T03:47:04;101459.75;;;20.37
78859;BMP280;68210;52.032;4.634;2023-06-14T03:49:04;101456.22;;;20.23
78859;BMP280;68210;52.032;4.634;2023-06-14T03:51:05;101463.38;;;20.10
78859;BMP280;68210;52.032;4.634;2023-06-14T03:53:06;101462.50;;;20.30
78859;BMP280;68210;52.032;4.634;2023-06-14T03:55:06;101463.28;;;20.31
78859;BMP280;68210;52.032;4.634;2023-06-14T03:57:09;101470.06;;;20.12
78859;BMP280;68210;52.032;4.634;2023-06-14T03:59:09;101467.69;;;20.08
78859;BMP280;68210;52.032;4.634;2023-06-14T04:01:09;101471.97;;;20.29
78859;BMP280;68210;52.032;4.634;2023-06-14T04:03:12;101473.50;;;20.37
78859;BMP280;68210;52.032;4.634;2023-06-14T04:05:13;101469.25;;;20.12
78859;BMP280;68210;52.032;4.634;2023-06-14T04:07:19;101466.53;;;19.74
78859;BMP280;68210;52.032;4.634;2023-06-14T04:09:19;101470.50;;;19.59
78859;BMP280;68210;52.032;4.634;2023-06-14T04:11:20;101476.34;;;19.72
78859;BMP280;68210;52.032;4.634;2023-06-14T04:13:20;101479.53;;;19.49
78859;BMP280;68210;52.032;4.634;2023-06-14T04:15:20;101488.97;;;19.35
78859;BMP280;68210;52.032;4.634;2023-06-14T04:17:21;101481.09;;;19.30
78859;BMP280;68210;52.032;4.634;2023-06-14T04:19:21;101487.34;;;19.23
78859;BMP280;68210;52.032;4.634;2023-06-14T04:21:21;101483.41;;;19.07
78859;BMP280;68210;52.032;4.634;2023-06-14T04:23:23;101483.41;;;19.14
78859;BMP280;68210;52.032;4.634;2023-06-14T04:25:24;101486.56;;;19.26
78859;BMP280;68210;52.032;4.634;2023-06-14T04:27:26;101481.47;;;19.32
78859;BMP280;68210;52.032;4.634;2023-06-14T04:29:27;101490.09;;;19.03
78859;BMP280;68210;52.032;4.634;2023-06-14T04:31:29;101486.53;;;18.99
78859;BMP280;68210;52.032;4.634;2023-06-14T04:33:36;101490.47;;;19.01
78859;BMP280;68210;52.032;4.634;2023-06-14T04:35:43;101490.47;;;19.12
78859;BMP280;68210;52.032;4.634;2023-06-14T04:37:47;101489.28;;;18.95
78859;BMP280;68210;52.032;4.634;2023-06-14T04:39:48;101491.66;;;19.11
78859;BMP280;68210;52.032;4.634;2023-06-14T04:41:49;101474.00;;;19.29
78859;BMP280;68210;52.032;4.634;2023-06-14T04:43:57;101485.81;;;19.33
78859;BMP280;68210;52.032;4.634;2023-06-14T04:45:58;101485.00;;;19.39
78859;BMP280;68210;52.032;4.634;2023-06-14T04:47:59;101483.44;;;19.52
78859;BMP280;68210;52.032;4.634;2023-06-14T04:49:59;101486.59;;;19.44
78859;BMP280;68210;52.032;4.634;2023-06-14T04:52:00;101489.75;;;19.49
78859;BMP280;68210;52.032;4.634;2023-06-14T04:54:01;101487.78;;;19.36
78859;BMP280;68210;52.032;4.634;2023-06-14T04:56:03;101487.38;;;19.41
78859;BMP280;68210;52.032;4.634;2023-06-14T04:58:04;101481.50;;;19.46
78859;BMP280;68210;52.032;4.634;2023-06-14T05:00:05;101502.28;;;19.19
78859;BMP280;68210;52.032;4.634;2023-06-14T05:02:06;101487.38;;;19.34
78859;BMP280;68210;52.032;4.634;2023-06-14T05:04:07;101492.88;;;19.44
78859;BMP280;68210;52.032;4.634;2023-06-14T05:06:07;101494.06;;;19.74
78859;BMP280;68210;52.032;4.634;2023-06-14T05:08:07;101498.00;;;19.59
78859;BMP280;68210;52.032;4.634;2023-06-14T05:10:09;101491.31;;;19.60
78859;BMP280;68210;52.032;4.634;2023-06-14T05:12:10;101499.16;;;19.34
78859;BMP280;68210;52.032;4.634;2023-06-14T05:14:11;101492.09;;;19.47
78859;BMP280;68210;52.032;4.634;2023-06-14T05:16:11;101492.88;;;19.61
78859;BMP280;68210;52.032;4.634;2023-06-14T05:18:12;101493.66;;;19.65
78859;BMP280;68210;52.032;4.634;2023-06-14T05:20:13;101495.25;;;19.73
78859;BMP280;68210;52.032;4.634;2023-06-14T05:22:13;101501.56;;;19.91
78859;BMP280;68210;52.032;4.634;2023-06-14T05:24:14;101501.94;;;19.96
78859;BMP280;68210;52.032;4.634;2023-06-14T05:26:15;101505.84;;;19.99
78859;BMP280;68210;52.032;4.634;2023-06-14T05:28:16;101499.94;;;20.04
78859;BMP280;68210;52.032;4.634;2023-06-14T05:30:16;101492.88;;;20.03
78859;BMP280;68210;52.032;4.634;2023-06-14T05:32:17;101512.53;;;19.98
78859;BMP280;68210;52.032;4.634;2023-06-14T05:34:17;101506.28;;;19.94
78859;BMP280;68210;52.032;4.634;2023-06-14T05:36:18;101507.38;;;20.24
78859;BMP280;68210;52.032;4.634;2023-06-14T05:38:18;101508.59;;;20.06
78859;BMP280;68210;52.032;4.634;2023-06-14T05:40:18;101503.84;;;20.23
78859;BMP280;68210;52.032;4.634;2023-06-14T05:42:19;101505.72;;;20.47
78859;BMP280;68210;52.032;4.634;2023-06-14T05:44:19;101504.16;;;20.53
78859;BMP280;68210;52.032;4.634;2023-06-14T05:46:19;101514.38;;;20.49
78859;BMP280;68210;52.032;4.634;2023-06-14T05:48:22;101509.25;;;20.65
78859;BMP280;68210;52.032;4.634;2023-06-14T05:50:22;101511.59;;;20.63
78859;BMP280;68210;52.032;4.634;2023-06-14T05:52:22;101508.19;;;20.21
78859;BMP280;68210;52.032;4.634;2023-06-14T05:54:23;101512.44;;;20.53
78859;BMP280;68210;52.032;4.634;2023-06-14T05:56:23;101520.31;;;20.34
78859;BMP280;68210;52.032;4.634;2023-06-14T05:58:23;101517.13;;;20.59
78859;BMP280;68210;52.032;4.634;2023-06-14T06:00:24;101522.56;;;20.80
78859;BMP280;68210;52.032;4.634;2023-06-14T06:02:24;101505.94;;;20.97
78859;BMP280;68210;52.032;4.634;2023-06-14T06:04:24;101520.50;;;20.98
78859;BMP280;68210;52.032;4.634;2023-06-14T06:06:25;101522.63;;;20.70
78859;BMP280;68210;52.032;4.634;2023-06-14T06:08:26;101522.53;;;20.90
78859;BMP280;68210;52.032;4.634;2023-06-14T06:10:27;101512.69;;;20.93
78859;BMP280;68210;52.032;4.634;2023-06-14T06:12:27;101518.16;;;20.96
78859;BMP280;68210;52.032;4.634;2023-06-14T06:14:28;101519.50;;;21.32
78859;BMP280;68210;52.032;4.634;2023-06-14T06:16:28;101517.88;;;21.44
78859;BMP280;68210;52.032;4.634;2023-06-14T06:18:28;101519.88;;;21.40
78859;BMP280;68210;52.032;4.634;2023-06-14T06:20:29;101522.69;;;21.33
78859;BMP280;68210;52.032;4.634;2023-06-14T06:22:31;101523.84;;;21.36
78859;BMP280;68210;52.032;4.634;2023-06-14T06:24:32;101529.38;;;21.29
78859;BMP280;68210;52.032;4.634;2023-06-14T06:26:32;101525.22;;;21.04
78859;BMP280;68210;52.032;4.634;2023-06-14T06:28:33;101531.06;;;21.13
78859;BMP280;68210;52.032;4.634;2023-06-14T06:30:33;101525.03;;;21.32
78859;BMP280;68210;52.032;4.634;2023-06-14T06:32:33;101537.69;;;21.83
78859;BMP280;68210;52.032;4.634;2023-06-14T06:34:34;101540.19;;;22.14
78859;BMP280;68210;52.032;4.634;2023-06-14T06:36:35;101533.53;;;22.04
78859;BMP280;68210;52.032;4.634;2023-06-14T06:38:37;101532.25;;;22.16
78859;BMP280;68210;52.032;4.634;2023-06-14T06:40:37;101552.16;;;22.37
78859;BMP280;68210;52.032;4.634;2023-06-14T06:42:37;101545.16;;;22.29
78859;BMP280;68210;52.032;4.634;2023-06-14T06:44:38;101543.50;;;22.71
78859;BMP280;68210;52.032;4.634;2023-06-14T06:46:38;101539.75;;;22.88
78859;BMP280;68210;52.032;4.634;2023-06-14T06:48:42;101548.34;;;22.97
78859;BMP280;68210;52.032;4.634;2023-06-14T06:50:43;101547.25;;;22.55
78859;BMP280;68210;52.032;4.634;2023-06-14T06:52:43;101552.47;;;22.02
78859;BMP280;68210;52.032;4.634;2023-06-14T06:54:45;101562.63;;;22.55
78859;BMP280;68210;52.032;4.634;2023-06-14T06:56:45;101548.53;;;22.83
78859;BMP280;68210;52.032;4.634;2023-06-14T06:58:46;101538.13;;;22.94
78859;BMP280;68210;52.032;4.634;2023-06-14T07:00:46;101554.03;;;23.42
78859;BMP280;68210;52.032;4.634;2023-06-14T07:02:47;101554.66;;;22.97
78859;BMP280;68210;52.032;4.634;2023-06-14T07:04:47;101547.22;;;22.91
78859;BMP280;68210;52.032;4.634;2023-06-14T07:06:48;101560.00;;;23.11
78859;BMP280;68210;52.032;4.634;2023-06-14T07:08:48;101568.41;;;23.30
78859;BMP280;68210;52.032;4.634;2023-06-14T07:10:49;101563.31;;;23.81
78859;BMP280;68210;52.032;4.634;2023-06-14T07:12:49;101571.16;;;23.60
78859;BMP280;68210;52.032;4.634;2023-06-14T07:14:49;101573.22;;;23.56
78859;BMP280;68210;52.032;4.634;2023-06-14T07:16:50;101569.25;;;23.27
78859;BMP280;68210;52.032;4.634;2023-06-14T07:18:50;101571.94;;;23.86
78859;BMP280;68210;52.032;4.634;2023-06-14T07:20:51;101572.91;;;23.99
78859;BMP280;68210;52.032;4.634;2023-06-14T07:22:52;101572.25;;;23.92
78859;BMP280;68210;52.032;4.634;2023-06-14T07:24:52;101570.13;;;23.99
78859;BMP280;68210;52.032;4.634;2023-06-14T07:26:52;101576.63;;;23.67
78859;BMP280;68210;52.032;4.634;2023-06-14T07:28:53;101577.00;;;23.91
78859;BMP280;68210;52.032;4.634;2023-06-14T07:30:53;101570.75;;;24.33
78859;BMP280;68210;52.032;4.634;2023-06-14T07:32:53;101579.13;;;23.28
78859;BMP280;68210;52.032;4.634;2023-06-14T07:34:54;101580.44;;;22.87
78859;BMP280;68210;52.032;4.634;2023-06-14T07:36:54;101576.47;;;23.51
78859;BMP280;68210;52.032;4.634;2023-06-14T07:38:55;101585.31;;;24.14
78859;BMP280;68210;52.032;4.634;2023-06-14T07:40:56;101585.13;;;24.28
78859;BMP280;68210;52.032;4.634;2023-06-14T07:42:56;101590.53;;;24.08
78859;BMP280;68210;52.032;4.634;2023-06-14T07:44:56;101581.03;;;24.09
78859;BMP280;68210;52.032;4.634;2023-06-14T07:46:57;101586.31;;;23.78
78859;BMP280;68210;52.032;4.634;2023-06-14T07:49:00;101582.63;;;23.84
78859;BMP280;68210;52.032;4.634;2023-06-14T07:51:00;101579.16;;;24.48
78859;BMP280;68210;52.032;4.634;2023-06-14T07:53:01;101588.97;;;24.34
78859;BMP280;68210;52.032;4.634;2023-06-14T07:55:01;101592.31;;;24.22
78859;BMP280;68210;52.032;4.634;2023-06-14T07:57:02;101608.69;;;23.90
78859;BMP280;68210;52.032;4.634;2023-06-14T07:59:02;101601.00;;;23.75
78859;BMP280;68210;52.032;4.634;2023-06-14T08:01:03;101596.53;;;24.52
78859;BMP280;68210;52.032;4.634;2023-06-14T08:03:06;101595.53;;;24.62
78859;BMP280;68210;52.032;4.634;2023-06-14T08:05:07;101591.28;;;25.15
78859;BMP280;68210;52.032;4.634;2023-06-14T08:07:07;101600.13;;;25.45
78859;BMP280;68210;52.032;4.634;2023-06-14T08:09:07;101596.09;;;24.73
78859;BMP280;68210;52.032;4.634;2023-06-14T08:11:08;101621.78;;;24.35
78859;BMP280;68210;52.032;4.634;2023-06-14T08:13:08;101609.44;;;24.40
78859;BMP280;68210;52.032;4.634;2023-06-14T08:15:10;101612.09;;;24.24
78859;BMP280;68210;52.032;4.634;2023-06-14T08:17:10;101605.69;;;24.27
78859;BMP280;68210;52.032;4.634;2023-06-14T08:19:10;101598.91;;;24.05
78859;BMP280;68210;52.032;4.634;2023-06-14T08:21:11;101597.75;;;24.29
78859;BMP280;68210;52.032;4.634;2023-06-14T08:23:11;101597.13;;;24.40
78859;BMP280;68210;52.032;4.634;2023-06-14T08:25:12;101606.03;;;24.06
78859;BMP280;68210;52.032;4.634;2023-06-14T08:27:13;101598.13;;;24.31
78859;BMP280;68210;52.032;4.634;2023-06-14T08:29:14;101591.78;;;24.72
78859;BMP280;68210;52.032;4.634;2023-06-14T08:31:15;101582.03;;;25.02
78859;BMP280;68210;52.032;4.634;2023-06-14T08:33:15;101594.59;;;24.49
78859;BMP280;68210;52.032;4.634;2023-06-14T08:35:16;101612.31;;;24.10
78859;BMP280;68210;52.032;4.634;2023-06-14T08:37:16;101613.88;;;24.56
78859;BMP280;68210;52.032;4.634;2023-06-14T08:39:17;101608.31;;;24.56
78859;BMP280;68210;52.032;4.634;2023-06-14T08:41:21;101601.94;;;24.78
78859;BMP280;68210;52.032;4.634;2023-06-14T08:43:22;101605.06;;;25.03
78859;BMP280;68210;52.032;4.634;2023-06-14T08:45:23;101596.44;;;25.17
78859;BMP280;68210;52.032;4.634;2023-06-14T08:47:25;101608.09;;;25.08
78859;BMP280;68210;52.032;4.634;2023-06-14T08:49:26;101604.50;;;24.92
78859;BMP280;68210;52.032;4.634;2023-06-14T08:51:27;101617.31;;;24.83
78859;BMP280;68210;52.032;4.634;2023-06-14T08:53:35;101604.50;;;24.92
78859;BMP280;68210;52.032;4.634;2023-06-14T08:55:42;101591.69;;;24.56
78859;BMP280;68210;52.032;4.634;2023-06-14T08:57:44;101612.44;;;24.48
78859;BMP280;68210;52.032;4.634;2023-06-14T08:59:49;101624.84;;;24.18
78859;BMP280;68210;52.032;4.634;2023-06-14T09:01:54;101617.78;;;24.13
78859;BMP280;68210;52.032;4.634;2023-06-14T09:03:54;101608.44;;;24.04
78859;BMP280;68210;52.032;4.634;2023-06-14T09:05:58;101615.16;;;24.29
78859;BMP280;68210;52.032;4.634;2023-06-14T09:08:01;101605.69;;;24.04
78859;BMP280;68210;52.032;4.634;2023-06-14T09:10:10;101593.78;;;24.71
78859;BMP280;68210;52.032;4.634;2023-06-14T09:12:11;101619.44;;;24.75
78859;BMP280;68210;52.032;4.634;2023-06-14T09:14:12;101605.53;;;24.79
78859;BMP280;68210;52.032;4.634;2023-06-14T09:16:13;101601.16;;;24.78
78859;BMP280;68210;52.032;4.634;2023-06-14T09:18:13;101616.63;;;24.79
78859;BMP280;68210;52.032;4.634;2023-06-14T09:20:14;101607.75;;;24.65
78859;BMP280;68210;52.032;4.634;2023-06-14T09:22:18;101617.41;;;25.18
78859;BMP280;68210;52.032;4.634;2023-06-14T09:24:19;101625.53;;;24.90
78859;BMP280;68210;52.032;4.634;2023-06-14T09:26:19;101608.53;;;24.65
78859;BMP280;68210;52.032;4.634;2023-06-14T09:28:26;101614.47;;;24.67
78859;BMP280;68210;52.032;4.634;2023-06-14T09:30:28;101621.47;;;24.94
78859;BMP280;68210;52.032;4.634;2023-06-14T09:32:28;101616.56;;;25.21
78859;BMP280;68210;52.032;4.634;2023-06-14T09:34:29;101630.69;;;24.69
78859;BMP280;68210;52.032;4.634;2023-06-14T09:36:31;101609.38;;;25.04
78859;BMP280;68210;52.032;4.634;2023-06-14T09:38:34;101616.72;;;24.95
78859;BMP280;68210;52.032;4.634;2023-06-14T09:40:35;101617.09;;;24.74
78859;BMP280;68210;52.032;4.634;2023-06-14T09:42:38;101619.94;;;25.47
78859;BMP280;68210;52.032;4.634;2023-06-14T09:44:41;101608.31;;;25.87
78859;BMP280;68210;52.032;4.634;2023-06-14T09:46:41;101615.78;;;25.90
78859;BMP280;68210;52.032;4.634;2023-06-14T09:48:41;101608.91;;;25.79
78859;BMP280;68210;52.032;4.634;2023-06-14T09:50:45;101618.03;;;26.11
78859;BMP280;68210;52.032;4.634;2023-06-14T09:52:48;101610.91;;;26.10
78859;BMP280;68210;52.032;4.634;2023-06-14T09:54:50;101615.06;;;26.49
78859;BMP280;68210;52.032;4.634;2023-06-14T09:56:51;101598.69;;;26.83
78859;BMP280;68210;52.032;4.634;2023-06-14T09:58:56;101604.00;;;26.77
78859;BMP280;68210;52.032;4.634;2023-06-14T10:00:57;101632.75;;;26.43
78859;BMP280;68210;52.032;4.634;2023-06-14T10:03:02;101618.25;;;26.20
78859;BMP280;68210;52.032;4.634;2023-06-14T10:05:04;101616.03;;;26.43
78859;BMP280;68210;52.032;4.634;2023-06-14T10:07:07;101610.75;;;26.01
78859;BMP280;68210;52.032;4.634;2023-06-14T10:09:09;101612.31;;;26.33
78859;BMP280;68210;52.032;4.634;2023-06-14T10:11:11;101608.84;;;25.98
78859;BMP280;68210;52.032;4.634;2023-06-14T10:13:13;101606.56;;;26.56
78859;BMP280;68210;52.032;4.634;2023-06-14T10:19:44;101624.56;;;25.89
78859;BMP280;68210;52.032;4.634;2023-06-14T10:21:59;101608.78;;;25.51
78859;BMP280;68210;52.032;4.634;2023-06-14T10:24:05;101601.09;;;26.05
78859;BMP280;68210;52.032;4.634;2023-06-14T10:26:07;101608.84;;;26.45
78859;BMP280;68210;52.032;4.634;2023-06-14T10:28:20;101603.31;;;26.73
78859;BMP280;68210;52.032;4.634;2023-06-14T10:30:25;101600.06;;;26.31
78859;BMP280;68210;52.032;4.634;2023-06-14T10:32:26;101615.63;;;26.28
78859;BMP280;68210;52.032;4.634;2023-06-14T10:34:30;101600.88;;;26.16
78859;BMP280;68210;52.032;4.634;2023-06-14T10:36:31;101612.66;;;26.04
78859;BMP280;68210;52.032;4.634;2023-06-14T10:38:33;101607.34;;;25.93
78859;BMP280;68210;52.032;4.634;2023-06-14T10:40:34;101611.72;;;26.10
78859;BMP280;68210;52.032;4.634;2023-06-14T10:42:36;101632.84;;;26.24
78859;BMP280;68210;52.032;4.634;2023-06-14T10:46:47;101601.63;;;26.32
78859;BMP280;68210;52.032;4.634;2023-06-14T10:48:47;101602.69;;;26.66
78859;BMP280;68210;52.032;4.634;2023-06-14T10:50:48;101617.31;;;26.54
78859;BMP280;68210;52.032;4.634;2023-06-14T10:52:49;101618.09;;;26.55
78859;BMP280;68210;52.032;4.634;2023-06-14T10:55:26;101622.38;;;26.43
78859;BMP280;68210;52.032;4.634;2023-06-14T10:57:25;101622.03;;;25.94
78859;BMP280;68210;52.032;4.634;2023-06-14T10:59:26;101623.00;;;26.35
78859;BMP280;68210;52.032;4.634;2023-06-14T11:02:04;101622.47;;;26.08
78859;BMP280;68210;52.032;4.634;2023-06-14T11:04:07;101620.31;;;26.31
78859;BMP280;68210;52.032;4.634;2023-06-14T11:06:14;101605.03;;;26.24
78859;BMP280;68210;52.032;4.634;2023-06-14T11:08:40;101612.31;;;26.02
78859;BMP280;68210;52.032;4.634;2023-06-14T11:10:46;101606.75;;;26.02
78859;BMP280;68210;52.032;4.634;2023-06-14T11:12:48;101597.72;;;26.29
78859;BMP280;68210;52.032;4.634;2023-06-14T11:14:49;101604.81;;;26.46
78859;BMP280;68210;52.032;4.634;2023-06-14T11:16:50;101603.03;;;26.40
78859;BMP280;68210;52.032;4.634;2023-06-14T11:18:50;101599.28;;;26.15
78859;BMP280;68210;52.032;4.634;2023-06-14T11:20:50;101607.13;;;25.53
78859;BMP280;68210;52.032;4.634;2023-06-14T11:22:52;101607.28;;;25.81
78859;BMP280;68210;52.032;4.634;2023-06-14T11:24:53;101581.03;;;25.98
78859;BMP280;68210;52.032;4.634;2023-06-14T11:26:55;101607.19;;;26.00
78859;BMP280;68210;52.032;4.634;2023-06-14T11:29:00;101606.31;;;25.88
78859;BMP280;68210;52.032;4.634;2023-06-14T11:31:02;101608.56;;;25.42
78859;BMP280;68210;52.032;4.634;2023-06-14T11:33:03;101596.53;;;25.29
78859;BMP280;68210;52.032;4.634;2023-06-14T11:35:04;101584.69;;;25.79
78859;BMP280;68210;52.032;4.634;2023-06-14T11:37:05;101595.63;;;25.70
78859;BMP280;68210;52.032;4.634;2023-06-14T11:39:06;101589.09;;;25.77